sensor_id;sensor_type;location;lat;lon;timestamp;temperature;humidity
13598;DHT22;38563;54.258;12.574;2022-12-17T00:01:59;-10.60;99.90
13598;DHT22;38563;54.258;12.574;2022-12-17T00:04:44;-10.60;99.90
13598;DHT22;38563;54.258;12.574;2022-12-17T00:07:28;-10.50;99.90
13598;DHT22;38563;54.258;12.574;2022-12-17T00:10:22;-10.50;99.90
13598;DHT22;38563;54.258;12.574;2022-12-17T00:13:16;-10.40;99.90
13598;DHT22;38563;54.258;12.574;2022-12-17T00:16:01;-10.40;99.90
13598;DHT22;38563;54.258;12.574;2022-12-17T00:18:45;-10.50;99.90
13598;DHT22;38563;54.258;12.574;2022-12-17T00:21:29;-10.50;99.90
13598;DHT22;38563;54.258;12.574;2022-12-17T00:24:14;-10.50;99.90
13598;DHT22;38563;54.258;12.574;2022-12-17T00:26:59;-10.60;99.90
13598;DHT22;38563;54.258;12.574;2022-12-17T00:29:44;-10.60;99.90
13598;DHT22;38563;54.258;12.574;2022-12-17T00:32:24;-10.70;99.90
13598;DHT22;38563;54.258;12.574;2022-12-17T00:35:10;-10.80;99.90
13598;DHT22;38563;54.258;12.574;2022-12-17T00:37:53;-10.90;99.90
13598;DHT22;38563;54.258;12.574;2022-12-17T00:40:38;-11.00;99.90
13598;DHT22;38563;54.258;12.574;2022-12-17T00:43:23;-11.00;99.90
13598;DHT22;38563;54.258;12.574;2022-12-17T00:46:08;-11.00;99.90
13598;DHT22;38563;54.258;12.574;2022-12-17T00:48:52;-11.00;99.90
13598;DHT22;38563;54.258;12.574;2022-12-17T00:51:37;-11.00;99.90
13598;DHT22;38563;54.258;12.574;2022-12-17T00:54:21;-11.00;99.90
13598;DHT22;38563;54.258;12.574;2022-12-17T00:57:05;-11.10;99.90
13598;DHT22;38563;54.258;12.574;2022-12-17T00:59:53;-11.00;99.90
13598;DHT22;38563;54.258;12.574;2022-12-17T01:02:38;-11.00;99.90
13598;DHT22;38563;54.258;12.574;2022-12-17T01:05:24;-11.00;99.90
13598;DHT22;38563;54.258;12.574;2022-12-17T01:08:11;-11.00;99.90
13598;DHT22;38563;54.258;12.574;2022-12-17T01:10:58;-11.10;99.90
13598;DHT22;38563;54.258;12.574;2022-12-17T01:13:42;-11.10;99.90
13598;DHT22;38563;54.258;12.574;2022-12-17T01:16:28;-11.20;99.90
13598;DHT22;38563;54.258;12.574;2022-12-17T01:19:13;-11.20;99.90
13598;DHT22;38563;54.258;12.574;2022-12-17T01:21:57;-11.30;99.90
13598;DHT22;38563;54.258;12.574;2022-12-17T01:24:41;-11.20;99.90
13598;DHT22;38563;54.258;12.574;2022-12-17T01:27:25;-11.30;99.90
13598;DHT22;38563;54.258;12.574;2022-12-17T01:30:10;-11.30;99.90
13598;DHT22;38563;54.258;12.574;2022-12-17T01:33:00;-11.20;99.90
13598;DHT22;38563;54.258;12.574;2022-12-17T01:35:45;-11.20;99.90
13598;DHT22;38563;54.258;12.574;2022-12-17T01:38:30;-11.20;99.90
13598;DHT22;38563;54.258;12.574;2022-12-17T01:41:14;-11.10;99.90
13598;DHT22;38563;54.258;12.574;2022-12-17T01:43:58;-11.10;99.90
13598;DHT22;38563;54.258;12.574;2022-12-17T01:46:48;-11.10;99.90
13598;DHT22;38563;54.258;12.574;2022-12-17T01:49:40;-11.10;99.90
13598;DHT22;38563;54.258;12.574;2022-12-17T01:52:26;-11.10;99.90
13598;DHT22;38563;54.258;12.574;2022-12-17T01:55:10;-11.10;99.90
13598;DHT22;38563;54.258;12.574;2022-12-17T01:57:54;-11.10;99.90
13598;DHT22;38563;54.258;12.574;2022-12-17T02:00:38;-11.10;99.90
13598;DHT22;38563;54.258;12.574;2022-12-17T02:03:24;-11.00;99.90
13598;DHT22;38563;54.258;12.574;2022-12-17T02:06:19;-11.10;99.90
13598;DHT22;38563;54.258;12.574;2022-12-17T02:09:09;-11.00;99.90
13598;DHT22;38563;54.258;12.574;2022-12-17T02:12:01;-11.00;99.90
13598;DHT22;38563;54.258;12.574;2022-12-17T02:14:54;-11.00;99.90
13598;DHT22;38563;54.258;12.574;2022-12-17T02:17:42;-10.90;99.90
13598;DHT22;38563;54.258;12.574;2022-12-17T02:20:30;-10.80;99.90
13598;DHT22;38563;54.258;12.574;2022-12-17T02:23:29;-10.70;99.90
13598;DHT22;38563;54.258;12.574;2022-12-17T02:26:19;-10.70;99.90
13598;DHT22;38563;54.258;12.574;2022-12-17T02:29:05;-10.70;99.90
13598;DHT22;38563;54.258;12.574;2022-12-17T02:31:51;-10.80;99.90
13598;DHT22;38563;54.258;12.574;2022-12-17T02:34:46;-10.80;99.90
13598;DHT22;38563;54.258;12.574;2022-12-17T02:37:32;-10.70;99.90
13598;DHT22;38563;54.258;12.574;2022-12-17T02:40:17;-10.60;99.90
13598;DHT22;38563;54.258;12.574;2022-12-17T02:43:03;-10.60;99.90
13598;DHT22;38563;54.258;12.574;2022-12-17T02:45:49;-10.60;99.90
13598;DHT22;38563;54.258;12.574;2022-12-17T02:48:34;-10.60;99.90
13598;DHT22;38563;54.258;12.574;2022-12-17T02:51:18;-10.60;99.90
13598;DHT22;38563;54.258;12.574;2022-12-17T02:54:03;-10.70;99.90
13598;DHT22;38563;54.258;12.574;2022-12-17T02:56:47;-10.70;99.90
13598;DHT22;38563;54.258;12.574;2022-12-17T02:59:32;-10.70;99.90
13598;DHT22;38563;54.258;12.574;2022-12-17T03:02:16;-10.80;99.90
13598;DHT22;38563;54.258;12.574;2022-12-17T03:05:00;-10.90;99.90
13598;DHT22;38563;54.258;12.574;2022-12-17T03:07:44;-11.10;99.90
13598;DHT22;38563;54.258;12.574;2022-12-17T03:10:28;-11.20;99.90
13598;DHT22;38563;54.258;12.574;2022-12-17T03:13:21;-11.20;99.90
13598;DHT22;38563;54.258;12.574;2022-12-17T03:16:09;-11.20;99.90
13598;DHT22;38563;54.258;12.574;2022-12-17T03:18:55;-11.20;99.90
13598;DHT22;38563;54.258;12.574;2022-12-17T03:21:40;-11.20;99.90
13598;DHT22;38563;54.258;12.574;2022-12-17T03:24:24;-11.20;99.90
13598;DHT22;38563;54.258;12.574;2022-12-17T03:27:08;-11.20;99.90
13598;DHT22;38563;54.258;12.574;2022-12-17T03:29:53;-11.20;99.90
13598;DHT22;38563;54.258;12.574;2022-12-17T03:32:37;-11.20;99.90
13598;DHT22;38563;54.258;12.574;2022-12-17T03:35:22;-11.20;99.90
13598;DHT22;38563;54.258;12.574;2022-12-17T03:38:14;-11.10;99.90
13598;DHT22;38563;54.258;12.574;2022-12-17T03:40:58;-11.00;99.90
13598;DHT22;38563;54.258;12.574;2022-12-17T03:43:42;-11.00;99.90
13598;DHT22;38563;54.258;12.574;2022-12-17T03:46:26;-10.90;99.90
13598;DHT22;38563;54.258;12.574;2022-12-17T03:49:11;-10.90;99.90
13598;DHT22;38563;54.258;12.574;2022-12-17T03:51:55;-10.90;99.90
13598;DHT22;38563;54.258;12.574;2022-12-17T03:54:40;-11.00;99.90
13598;DHT22;38563;54.258;12.574;2022-12-17T03:57:25;-11.00;99.90
13598;DHT22;38563;54.258;12.574;2022-12-17T04:00:10;-11.10;99.90
13598;DHT22;38563;54.258;12.574;2022-12-17T04:02:54;-11.10;99.90
13598;DHT22;38563;54.258;12.574;2022-12-17T04:05:38;-11.10;99.90
13598;DHT22;38563;54.258;12.574;2022-12-17T04:08:27;-11.10;99.90
13598;DHT22;38563;54.258;12.574;2022-12-17T04:11:13;-11.10;99.90
13598;DHT22;38563;54.258;12.574;2022-12-17T04:13:57;-11.10;99.90
13598;DHT22;38563;54.258;12.574;2022-12-17T04:16:41;-11.00;99.90
13598;DHT22;38563;54.258;12.574;2022-12-17T04:19:25;-11.00;99.90
13598;DHT22;38563;54.258;12.574;2022-12-17T04:22:09;-11.00;99.90
13598;DHT22;38563;54.258;12.574;2022-12-17T04:24:54;-10.90;99.90
13598;DHT22;38563;54.258;12.574;2022-12-17T04:27:39;-10.80;99.90
13598;DHT22;38563;54.258;12.574;2022-12-17T04:30:23;-10.70;99.90
13598;DHT22;38563;54.258;12.574;2022-12-17T04:33:07;-10.70;99.90
13598;DHT22;38563;54.258;12.574;2022-12-17T04:35:51;-10.70;99.90
13598;DHT22;38563;54.258;12.574;2022-12-17T04:38:35;-10.60;99.90
13598;DHT22;38563;54.258;12.574;2022-12-17T04:41:20;-10.50;99.90
13598;DHT22;38563;54.258;12.574;2022-12-17T04:44:06;-10.50;99.90
13598;DHT22;38563;54.258;12.574;2022-12-17T04:46:50;-10.60;99.90
13598;DHT22;38563;54.258;12.574;2022-12-17T04:49:34;-10.60;99.90
13598;DHT22;38563;54.258;12.574;2022-12-17T04:52:17;-10.50;99.90
13598;DHT22;38563;54.258;12.574;2022-12-17T04:55:02;-10.60;99.90
13598;DHT22;38563;54.258;12.574;2022-12-17T04:57:46;-10.60;99.90
13598;DHT22;38563;54.258;12.574;2022-12-17T05:00:31;-10.60;99.90
13598;DHT22;38563;54.258;12.574;2022-12-17T05:03:16;-10.50;99.90
13598;DHT22;38563;54.258;12.574;2022-12-17T05:06:00;-10.60;99.90
13598;DHT22;38563;54.258;12.574;2022-12-17T05:08:45;-10.60;99.90
13598;DHT22;38563;54.258;12.574;2022-12-17T05:11:30;-10.50;99.90
13598;DHT22;38563;54.258;12.574;2022-12-17T05:14:14;-10.40;99.90
13598;DHT22;38563;54.258;12.574;2022-12-17T05:17:00;-10.40;99.90
13598;DHT22;38563;54.258;12.574;2022-12-17T05:19:44;-10.40;99.90
13598;DHT22;38563;54.258;12.574;2022-12-17T05:22:29;-10.40;99.90
13598;DHT22;38563;54.258;12.574;2022-12-17T05:25:13;-10.40;99.90
13598;DHT22;38563;54.258;12.574;2022-12-17T05:27:58;-10.50;99.90
13598;DHT22;38563;54.258;12.574;2022-12-17T05:30:42;-10.50;99.90
13598;DHT22;38563;54.258;12.574;2022-12-17T05:33:27;-10.40;99.90
13598;DHT22;38563;54.258;12.574;2022-12-17T05:36:11;-10.40;99.90
13598;DHT22;38563;54.258;12.574;2022-12-17T05:39:04;-10.40;99.90
13598;DHT22;38563;54.258;12.574;2022-12-17T05:41:48;-10.50;99.90
13598;DHT22;38563;54.258;12.574;2022-12-17T05:44:32;-10.50;99.90
13598;DHT22;38563;54.258;12.574;2022-12-17T05:47:16;-10.60;99.90
13598;DHT22;38563;54.258;12.574;2022-12-17T05:50:03;-10.90;99.90
13598;DHT22;38563;54.258;12.574;2022-12-17T05:52:47;-11.10;99.90
13598;DHT22;38563;54.258;12.574;2022-12-17T05:55:31;-11.20;99.90
13598;DHT22;38563;54.258;12.574;2022-12-17T05:58:15;-11.40;99.90
13598;DHT22;38563;54.258;12.574;2022-12-17T06:01:00;-11.50;99.90
13598;DHT22;38563;54.258;12.574;2022-12-17T06:03:45;-11.60;99.90
13598;DHT22;38563;54.258;12.574;2022-12-17T06:06:31;-11.70;99.90
13598;DHT22;38563;54.258;12.574;2022-12-17T06:09:20;-11.70;99.90
13598;DHT22;38563;54.258;12.574;2022-12-17T06:12:05;-11.70;99.90
13598;DHT22;38563;54.258;12.574;2022-12-17T06:15:00;-11.60;99.90
13598;DHT22;38563;54.258;12.574;2022-12-17T06:17:51;-11.50;99.90
13598;DHT22;38563;54.258;12.574;2022-12-17T06:20:35;-11.40;99.90
13598;DHT22;38563;54.258;12.574;2022-12-17T06:23:21;-11.20;99.90
13598;DHT22;38563;54.258;12.574;2022-12-17T06:26:08;-11.10;99.90
13598;DHT22;38563;54.258;12.574;2022-12-17T06:28:52;-11.10;99.90
13598;DHT22;38563;54.258;12.574;2022-12-17T06:31:36;-11.10;99.90
13598;DHT22;38563;54.258;12.574;2022-12-17T06:34:20;-11.10;99.90
13598;DHT22;38563;54.258;12.574;2022-12-17T06:37:04;-11.10;99.90
13598;DHT22;38563;54.258;12.574;2022-12-17T06:39:50;-11.20;99.90
13598;DHT22;38563;54.258;12.574;2022-12-17T06:42:51;-11.20;99.90
13598;DHT22;38563;54.258;12.574;2022-12-17T06:45:36;-11.10;99.90
13598;DHT22;38563;54.258;12.574;2022-12-17T06:48:20;-11.10;99.90
13598;DHT22;38563;54.258;12.574;2022-12-17T06:51:04;-11.10;99.90
13598;DHT22;38563;54.258;12.574;2022-12-17T06:53:48;-11.10;99.90
13598;DHT22;38563;54.258;12.574;2022-12-17T06:56:39;-11.00;99.90
13598;DHT22;38563;54.258;12.574;2022-12-17T06:59:23;-11.00;99.90
13598;DHT22;38563;54.258;12.574;2022-12-17T07:02:08;-11.00;99.90
13598;DHT22;38563;54.258;12.574;2022-12-17T07:04:53;-11.00;99.90
13598;DHT22;38563;54.258;12.574;2022-12-17T07:07:37;-10.90;99.90
13598;DHT22;38563;54.258;12.574;2022-12-17T07:10:21;-11.00;99.90
13598;DHT22;38563;54.258;12.574;2022-12-17T07:13:07;-11.00;99.90
13598;DHT22;38563;54.258;12.574;2022-12-17T07:15:53;-11.10;99.90
13598;DHT22;38563;54.258;12.574;2022-12-17T07:18:37;-11.10;99.90
13598;DHT22;38563;54.258;12.574;2022-12-17T07:21:22;-11.20;99.90
13598;DHT22;38563;54.258;12.574;2022-12-17T07:24:07;-11.30;99.90
13598;DHT22;38563;54.258;12.574;2022-12-17T07:26:51;-11.50;99.90
13598;DHT22;38563;54.258;12.574;2022-12-17T07:29:37;-11.60;99.90
13598;DHT22;38563;54.258;12.574;2022-12-17T07:32:21;-11.70;99.90
13598;DHT22;38563;54.258;12.574;2022-12-17T07:35:06;-11.70;99.90
13598;DHT22;38563;54.258;12.574;2022-12-17T07:37:57;-11.50;99.90
13598;DHT22;38563;54.258;12.574;2022-12-17T07:40:42;-11.20;99.90
13598;DHT22;38563;54.258;12.574;2022-12-17T07:43:26;-11.10;99.90
13598;DHT22;38563;54.258;12.574;2022-12-17T07:46:12;-11.00;99.90
13598;DHT22;38563;54.258;12.574;2022-12-17T07:48:56;-10.90;99.90
13598;DHT22;38563;54.258;12.574;2022-12-17T07:51:39;-10.90;99.90
13598;DHT22;38563;54.258;12.574;2022-12-17T07:54:24;-10.80;99.90
13598;DHT22;38563;54.258;12.574;2022-12-17T07:57:08;-10.70;99.90
13598;DHT22;38563;54.258;12.574;2022-12-17T07:59:52;-10.70;99.90
13598;DHT22;38563;54.258;12.574;2022-12-17T08:02:38;-10.70;99.90
13598;DHT22;38563;54.258;12.574;2022-12-17T08:05:22;-10.80;99.90
13598;DHT22;38563;54.258;12.574;2022-12-17T08:08:07;-10.90;99.90
13598;DHT22;38563;54.258;12.574;2022-12-17T08:10:51;-10.80;99.90
13598;DHT22;38563;54.258;12.574;2022-12-17T08:13:35;-10.90;99.90
13598;DHT22;38563;54.258;12.574;2022-12-17T08:16:19;-11.00;99.90
13598;DHT22;38563;54.258;12.574;2022-12-17T08:19:04;-11.10;99.90
13598;DHT22;38563;54.258;12.574;2022-12-17T08:21:49;-11.10;99.90
13598;DHT22;38563;54.258;12.574;2022-12-17T08:24:33;-11.10;99.90
13598;DHT22;38563;54.258;12.574;2022-12-17T08:27:17;-11.00;99.90
13598;DHT22;38563;54.258;12.574;2022-12-17T08:30:02;-10.90;99.90
13598;DHT22;38563;54.258;12.574;2022-12-17T08:32:47;-10.80;99.90
13598;DHT22;38563;54.258;12.574;2022-12-17T08:35:33;-10.60;99.90
13598;DHT22;38563;54.258;12.574;2022-12-17T08:38:28;-10.50;99.90
13598;DHT22;38563;54.258;12.574;2022-12-17T08:41:12;-10.30;99.90
13598;DHT22;38563;54.258;12.574;2022-12-17T08:43:57;-9.90;99.90
13598;DHT22;38563;54.258;12.574;2022-12-17T08:46:41;-9.60;99.90
13598;DHT22;38563;54.258;12.574;2022-12-17T08:49:25;-9.30;99.90
13598;DHT22;38563;54.258;12.574;2022-12-17T08:52:11;-9.10;99.90
13598;DHT22;38563;54.258;12.574;2022-12-17T08:54:57;-9.00;99.90
13598;DHT22;38563;54.258;12.574;2022-12-17T08:57:51;-9.00;99.90
13598;DHT22;38563;54.258;12.574;2022-12-17T09:00:44;-9.00;99.90
13598;DHT22;38563;54.258;12.574;2022-12-17T09:03:29;-9.00;99.90
13598;DHT22;38563;54.258;12.574;2022-12-17T09:06:13;-8.80;99.90
13598;DHT22;38563;54.258;12.574;2022-12-17T09:08:55;-8.60;99.90
13598;DHT22;38563;54.258;12.574;2022-12-17T09:11:39;-8.50;99.90
13598;DHT22;38563;54.258;12.574;2022-12-17T09:14:23;-8.30;99.90
13598;DHT22;38563;54.258;12.574;2022-12-17T09:17:08;-8.10;99.90
13598;DHT22;38563;54.258;12.574;2022-12-17T09:19:52;-7.90;99.90
13598;DHT22;38563;54.258;12.574;2022-12-17T09:22:36;-7.70;99.90
13598;DHT22;38563;54.258;12.574;2022-12-17T09:25:22;-7.60;99.90
13598;DHT22;38563;54.258;12.574;2022-12-17T09:28:07;-7.60;99.90
13598;DHT22;38563;54.258;12.574;2022-12-17T09:30:51;-7.60;99.90
13598;DHT22;38563;54.258;12.574;2022-12-17T09:33:36;-7.60;99.90
13598;DHT22;38563;54.258;12.574;2022-12-17T09:36:20;-7.40;99.90
13598;DHT22;38563;54.258;12.574;2022-12-17T09:39:04;-7.30;99.90
13598;DHT22;38563;54.258;12.574;2022-12-17T09:41:54;-7.30;99.90
13598;DHT22;38563;54.258;12.574;2022-12-17T09:44:46;-7.20;99.90
13598;DHT22;38563;54.258;12.574;2022-12-17T09:47:38;-7.00;99.90
13598;DHT22;38563;54.258;12.574;2022-12-17T09:50:26;-6.80;99.90
13598;DHT22;38563;54.258;12.574;2022-12-17T09:53:19;-6.60;99.90
13598;DHT22;38563;54.258;12.574;2022-12-17T09:56:04;-6.30;99.90
13598;DHT22;38563;54.258;12.574;2022-12-17T09:58:50;-6.10;99.90
13598;DHT22;38563;54.258;12.574;2022-12-17T10:01:35;-6.00;99.90
13598;DHT22;38563;54.258;12.574;2022-12-17T10:04:26;-6.00;99.90
13598;DHT22;38563;54.258;12.574;2022-12-17T10:07:13;-6.00;99.90
13598;DHT22;38563;54.258;12.574;2022-12-17T10:10:01;-5.90;99.90
13598;DHT22;38563;54.258;12.574;2022-12-17T10:12:53;-5.90;99.90
13598;DHT22;38563;54.258;12.574;2022-12-17T10:15:40;-5.90;99.90
13598;DHT22;38563;54.258;12.574;2022-12-17T10:18:25;-5.90;99.90
13598;DHT22;38563;54.258;12.574;2022-12-17T10:21:17;-5.90;99.90
13598;DHT22;38563;54.258;12.574;2022-12-17T10:24:06;-5.90;99.90
13598;DHT22;38563;54.258;12.574;2022-12-17T10:26:50;-5.90;99.90
13598;DHT22;38563;54.258;12.574;2022-12-17T10:29:34;-5.90;99.90
13598;DHT22;38563;54.258;12.574;2022-12-17T10:32:21;-5.90;99.90
13598;DHT22;38563;54.258;12.574;2022-12-17T10:35:10;-6.00;99.90
13598;DHT22;38563;54.258;12.574;2022-12-17T10:37:59;-6.00;99.90
13598;DHT22;38563;54.258;12.574;2022-12-17T10:40:43;-6.00;99.90
13598;DHT22;38563;54.258;12.574;2022-12-17T10:43:32;-5.90;99.90
13598;DHT22;38563;54.258;12.574;2022-12-17T10:46:24;-5.90;99.90
13598;DHT22;38563;54.258;12.574;2022-12-17T10:49:15;-5.90;99.90
13598;DHT22;38563;54.258;12.574;2022-12-17T10:52:02;-5.90;99.90
13598;DHT22;38563;54.258;12.574;2022-12-17T10:54:59;-5.90;99.90
13598;DHT22;38563;54.258;12.574;2022-12-17T10:57:44;-5.90;99.90
13598;DHT22;38563;54.258;12.574;2022-12-17T11:00:32;-5.80;99.90
13598;DHT22;38563;54.258;12.574;2022-12-17T11:03:31;-5.70;99.90
13598;DHT22;38563;54.258;12.574;2022-12-17T11:06:21;-5.70;99.90
13598;DHT22;38563;54.258;12.574;2022-12-17T11:09:13;-5.60;99.90
13598;DHT22;38563;54.258;12.574;2022-12-17T11:12:01;-5.60;99.90
13598;DHT22;38563;54.258;12.574;2022-12-17T11:14:53;-5.50;99.90
13598;DHT22;38563;54.258;12.574;2022-12-17T11:17:40;-5.50;99.90
13598;DHT22;38563;54.258;12.574;2022-12-17T11:20:38;-5.40;99.90
13598;DHT22;38563;54.258;12.574;2022-12-17T11:23:26;-5.30;99.90
13598;DHT22;38563;54.258;12.574;2022-12-17T11:26:13;-5.30;99.90
13598;DHT22;38563;54.258;12.574;2022-12-17T11:28:59;-5.20;99.90
13598;DHT22;38563;54.258;12.574;2022-12-17T11:31:53;-5.20;99.90
13598;DHT22;38563;54.258;12.574;2022-12-17T11:34:50;-5.20;99.90
13598;DHT22;38563;54.258;12.574;2022-12-17T11:37:45;-5.10;99.90
13598;DHT22;38563;54.258;12.574;2022-12-17T11:40:36;-5.00;99.90
13598;DHT22;38563;54.258;12.574;2022-12-17T11:43:26;-4.90;99.90
13598;DHT22;38563;54.258;12.574;2022-12-17T11:46:25;-4.80;99.90
13598;DHT22;38563;54.258;12.574;2022-12-17T11:49:29;-4.70;99.90
13598;DHT22;38563;54.258;12.574;2022-12-17T11:52:25;-4.60;99.90
13598;DHT22;38563;54.258;12.574;2022-12-17T11:55:18;-4.50;99.90
13598;DHT22;38563;54.258;12.574;2022-12-17T11:58:19;-4.40;99.90
13598;DHT22;38563;54.258;12.574;2022-12-17T12:01:15;-4.30;99.90
13598;DHT22;38563;54.258;12.574;2022-12-17T12:04:11;-4.20;99.90
13598;DHT22;38563;54.258;12.574;2022-12-17T12:07:04;-4.10;99.90
13598;DHT22;38563;54.258;12.574;2022-12-17T12:09:54;-4.10;99.90
13598;DHT22;38563;54.258;12.574;2022-12-17T12:12:52;-4.10;99.90
13598;DHT22;38563;54.258;12.574;2022-12-17T12:15:47;-4.10;99.90
13598;DHT22;38563;54.258;12.574;2022-12-17T12:18:45;-4.10;99.90
13598;DHT22;38563;54.258;12.574;2022-12-17T12:21:44;-4.10;99.90
13598;DHT22;38563;54.258;12.574;2022-12-17T12:24:51;-4.10;99.90
13598;DHT22;38563;54.258;12.574;2022-12-17T12:27:48;-4.10;99.90
13598;DHT22;38563;54.258;12.574;2022-12-17T12:30:37;-3.90;99.90
13598;DHT22;38563;54.258;12.574;2022-12-17T12:33:32;-3.90;99.90
13598;DHT22;38563;54.258;12.574;2022-12-17T12:36:20;-3.80;99.90
13598;DHT22;38563;54.258;12.574;2022-12-17T12:39:09;-3.80;99.90
13598;DHT22;38563;54.258;12.574;2022-12-17T12:41:58;-3.80;99.90
13598;DHT22;38563;54.258;12.574;2022-12-17T12:44:48;-3.90;99.90
13598;DHT22;38563;54.258;12.574;2022-12-17T12:47:42;-3.90;99.90
13598;DHT22;38563;54.258;12.574;2022-12-17T12:50:40;-3.90;99.90
13598;DHT22;38563;54.258;12.574;2022-12-17T12:53:26;-3.90;99.90
13598;DHT22;38563;54.258;12.574;2022-12-17T12:56:30;-3.90;99.90
13598;DHT22;38563;54.258;12.574;2022-12-17T12:59:23;-3.90;99.90
13598;DHT22;38563;54.258;12.574;2022-12-17T13:02:29;-3.90;99.90
13598;DHT22;38563;54.258;12.574;2022-12-17T13:05:24;-3.90;99.90
13598;DHT22;38563;54.258;12.574;2022-12-17T13:08:03;-3.80;99.90
13598;DHT22;38563;54.258;12.574;2022-12-17T13:10:41;-3.80;99.90
13598;DHT22;38563;54.258;12.574;2022-12-17T13:13:11;-3.80;99.90
13598;DHT22;38563;54.258;12.574;2022-12-17T13:15:45;-3.90;99.90
13598;DHT22;38563;54.258;12.574;2022-12-17T13:18:22;-3.90;99.90
13598;DHT22;38563;54.258;12.574;2022-12-17T13:20:57;-3.90;99.90
13598;DHT22;38563;54.258;12.574;2022-12-17T13:23:29;-3.90;99.90
13598;DHT22;38563;54.258;12.574;2022-12-17T13:26:13;-3.90;99.90
13598;DHT22;38563;54.258;12.574;2022-12-17T13:28:42;-3.80;99.90
13598;DHT22;38563;54.258;12.574;2022-12-17T13:31:15;-3.90;99.90
13598;DHT22;38563;54.258;12.574;2022-12-17T13:33:51;-3.90;99.90
13598;DHT22;38563;54.258;12.574;2022-12-17T13:36:25;-3.90;99.90
13598;DHT22;38563;54.258;12.574;2022-12-17T13:39:00;-3.90;99.90
13598;DHT22;38563;54.258;12.574;2022-12-17T13:41:30;-4.00;99.90
13598;DHT22;38563;54.258;12.574;2022-12-17T13:44:00;-3.90;99.90
13598;DHT22;38563;54.258;12.574;2022-12-17T13:46:29;-3.90;99.90
13598;DHT22;38563;54.258;12.574;2022-12-17T13:49:02;-3.90;99.90
13598;DHT22;38563;54.258;12.574;2022-12-17T13:51:31;-3.90;99.90
13598;DHT22;38563;54.258;12.574;2022-12-17T13:54:01;-3.90;99.90
13598;DHT22;38563;54.258;12.574;2022-12-17T13:56:30;-4.00;99.90
13598;DHT22;38563;54.258;12.574;2022-12-17T13:58:58;-4.10;99.90
13598;DHT22;38563;54.258;12.574;2022-12-17T14:01:27;-4.10;99.90
13598;DHT22;38563;54.258;12.574;2022-12-17T14:03:55;-4.10;99.90
13598;DHT22;38563;54.258;12.574;2022-12-17T14:06:25;-4.00;99.90
13598;DHT22;38563;54.258;12.574;2022-12-17T14:08:54;-4.10;99.90
13598;DHT22;38563;54.258;12.574;2022-12-17T14:11:23;-4.10;99.90
13598;DHT22;38563;54.258;12.574;2022-12-17T14:14:13;-4.20;99.90
13598;DHT22;38563;54.258;12.574;2022-12-17T14:16:41;-4.30;99.90
13598;DHT22;38563;54.258;12.574;2022-12-17T14:19:08;-4.30;99.90
13598;DHT22;38563;54.258;12.574;2022-12-17T14:21:36;-4.30;99.90
13598;DHT22;38563;54.258;12.574;2022-12-17T14:24:04;-4.40;99.90
13598;DHT22;38563;54.258;12.574;2022-12-17T14:26:32;-4.40;99.90
13598;DHT22;38563;54.258;12.574;2022-12-17T14:28:59;-4.50;99.90
13598;DHT22;38563;54.258;12.574;2022-12-17T14:31:27;-4.60;99.90
13598;DHT22;38563;54.258;12.574;2022-12-17T14:34:02;-4.70;99.90
13598;DHT22;38563;54.258;12.574;2022-12-17T14:36:33;-4.70;99.90
13598;DHT22;38563;54.258;12.574;2022-12-17T14:39:02;-4.80;99.90
13598;DHT22;38563;54.258;12.574;2022-12-17T14:41:37;-4.80;99.90
13598;DHT22;38563;54.258;12.574;2022-12-17T14:44:24;-4.90;99.90
13598;DHT22;38563;54.258;12.574;2022-12-17T14:47:04;-5.00;99.90
13598;DHT22;38563;54.258;12.574;2022-12-17T14:49:31;-5.10;99.90
13598;DHT22;38563;54.258;12.574;2022-12-17T14:51:58;-5.20;99.90
13598;DHT22;38563;54.258;12.574;2022-12-17T14:54:28;-5.20;99.90
13598;DHT22;38563;54.258;12.574;2022-12-17T14:56:58;-5.30;99.90
13598;DHT22;38563;54.258;12.574;2022-12-17T14:59:30;-5.40;99.90
13598;DHT22;38563;54.258;12.574;2022-12-17T15:01:59;-5.40;99.90
13598;DHT22;38563;54.258;12.574;2022-12-17T15:04:27;-5.50;99.90
13598;DHT22;38563;54.258;12.574;2022-12-17T15:06:55;-5.50;99.90
13598;DHT22;38563;54.258;12.574;2022-12-17T15:09:22;-5.50;99.90
13598;DHT22;38563;54.258;12.574;2022-12-17T15:11:49;-5.60;99.90
13598;DHT22;38563;54.258;12.574;2022-12-17T15:14:17;-5.60;99.90
13598;DHT22;38563;54.258;12.574;2022-12-17T15:16:43;-5.70;99.90
13598;DHT22;38563;54.258;12.574;2022-12-17T15:19:10;-5.70;99.90
13598;DHT22;38563;54.258;12.574;2022-12-17T15:21:38;-5.70;99.90
13598;DHT22;38563;54.258;12.574;2022-12-17T15:24:08;-5.70;99.90
13598;DHT22;38563;54.258;12.574;2022-12-17T15:26:35;-5.80;99.90
13598;DHT22;38563;54.258;12.574;2022-12-17T15:29:02;-5.80;99.90
13598;DHT22;38563;54.258;12.574;2022-12-17T15:31:30;-5.90;99.90
13598;DHT22;38563;54.258;12.574;2022-12-17T15:33:57;-5.90;99.90
13598;DHT22;38563;54.258;12.574;2022-12-17T15:36:24;-5.90;99.90
13598;DHT22;38563;54.258;12.574;2022-12-17T15:38:50;-5.90;99.90
13598;DHT22;38563;54.258;12.574;2022-12-17T15:41:17;-6.00;99.90
13598;DHT22;38563;54.258;12.574;2022-12-17T15:44:01;-6.00;99.90
13598;DHT22;38563;54.258;12.574;2022-12-17T15:46:30;-6.10;99.90
13598;DHT22;38563;54.258;12.574;2022-12-17T15:48:56;-6.10;99.90
13598;DHT22;38563;54.258;12.574;2022-12-17T15:51:23;-6.20;99.90
13598;DHT22;38563;54.258;12.574;2022-12-17T15:53:50;-6.20;99.90
13598;DHT22;38563;54.258;12.574;2022-12-17T15:56:20;-6.20;99.90
13598;DHT22;38563;54.258;12.574;2022-12-17T15:58:47;-6.20;99.90
13598;DHT22;38563;54.258;12.574;2022-12-17T16:01:14;-6.20;99.90
13598;DHT22;38563;54.258;12.574;2022-12-17T16:03:42;-6.20;99.90
13598;DHT22;38563;54.258;12.574;2022-12-17T16:06:09;-6.20;99.90
13598;DHT22;38563;54.258;12.574;2022-12-17T16:08:36;-6.20;99.90
13598;DHT22;38563;54.258;12.574;2022-12-17T16:11:05;-6.20;99.90
13598;DHT22;38563;54.258;12.574;2022-12-17T16:13:33;-6.20;99.90
13598;DHT22;38563;54.258;12.574;2022-12-17T16:16:00;-6.20;99.90
13598;DHT22;38563;54.258;12.574;2022-12-17T16:18:27;-6.10;99.90
13598;DHT22;38563;54.258;12.574;2022-12-17T16:21:00;-6.10;99.90
13598;DHT22;38563;54.258;12.574;2022-12-17T16:23:27;-6.00;99.90
13598;DHT22;38563;54.258;12.574;2022-12-17T16:25:57;-6.00;99.90
13598;DHT22;38563;54.258;12.574;2022-12-17T16:28:24;-6.00;99.90
13598;DHT22;38563;54.258;12.574;2022-12-17T16:30:59;-6.00;99.90
13598;DHT22;38563;54.258;12.574;2022-12-17T16:33:25;-6.00;99.90
13598;DHT22;38563;54.258;12.574;2022-12-17T16:35:52;-6.00;99.90
13598;DHT22;38563;54.258;12.574;2022-12-17T16:38:20;-6.00;99.90
13598;DHT22;38563;54.258;12.574;2022-12-17T16:40:47;-6.00;99.90
13598;DHT22;38563;54.258;12.574;2022-12-17T16:43:14;-6.10;99.90
13598;DHT22;38563;54.258;12.574;2022-12-17T16:45:46;-6.20;99.90